Time;durP1;ratioP1;P1;durP2;ratioP2;P2;SDS_P1;SDS_P2;PMS_P1;PMS_P2;Temp;Humidity;BMP_temperature;BMP_pressure;BME280_temperature;BME280_humidity;BME280_pressure;Samples;Min_cycle;Max_cycle;Signal;HPM_P1;HPM_P2
2022/11/14 00:02:03;;;;;;;15.33;11.93;;;;;;;;;;4988613;28;20187;-68
2022/11/14 00:04:29;;;;;;;17.40;12.23;;;;;;;;;;4992210;28;20660;-68
2022/11/14 00:06:54;;;;;;;15.23;12.07;;;;;;;;;;4993712;28;20306;-68
2022/11/14 00:09:19;;;;;;;15.23;11.93;;;;;;;;;;4991846;28;20199;-68
2022/11/14 00:11:44;;;;;;;20.97;13.23;;;;;;;;;;4994582;28;20209;-68
2022/11/14 00:14:10;;;;;;;16.70;12.23;;;;;;;;;;4990658;28;20222;-68
2022/11/14 00:16:35;;;;;;;18.43;13.60;;;;;;;;;;4991267;28;20607;-68
2022/11/14 00:19:00;;;;;;;18.07;12.93;;;;;;;;;;4991380;28;20182;-68
2022/11/14 00:21:26;;;;;;;17.73;13.30;;;;;;;;;;4990716;28;20195;-68
2022/11/14 00:23:51;;;;;;;16.47;12.40;;;;;;;;;;4991213;28;20700;-68
2022/11/14 00:26:16;;;;;;;16.13;12.47;;;;;;;;;;4991458;28;20168;-68
2022/11/14 00:28:41;;;;;;;15.80;12.17;;;;;;;;;;4990481;28;20179;-68
2022/11/14 00:31:07;;;;;;;14.60;11.70;;;;;;;;;;4972653;28;20195;-68
2022/11/14 00:33:33;;;;;;;16.23;11.27;;;;;;;;;;4991428;28;20725;-68
2022/11/14 00:35:58;;;;;;;17.30;12.63;;;;;;;;;;4991434;28;20275;-68
2022/11/14 00:38:23;;;;;;;15.93;12.23;;;;;;;;;;4991660;28;20202;-68
2022/11/14 00:40:48;;;;;;;16.23;11.93;;;;;;;;;;4988670;28;20183;-68
2022/11/14 00:43:14;;;;;;;15.77;11.17;;;;;;;;;;4990608;28;20183;-68
2022/11/14 00:45:41;;;;;;;15.23;11.27;;;;;;;;;;4990222;28;20676;-68
2022/11/14 00:48:06;;;;;;;17.57;11.80;;;;;;;;;;4991038;28;20781;-68
2022/11/14 00:50:31;;;;;;;16.43;10.87;;;;;;;;;;4987466;28;20286;-68
2022/11/14 00:52:56;;;;;;;15.97;11.50;;;;;;;;;;4990303;28;20201;-67
2022/11/14 00:55:22;;;;;;;14.73;11.13;;;;;;;;;;4990776;28;20282;-68
2022/11/14 00:57:47;;;;;;;17.13;11.27;;;;;;;;;;4990755;28;20179;-68
2022/11/14 01:00:12;;;;;;;13.07;9.83;;;;;;;;;;4990169;28;20344;-68
2022/11/14 01:02:38;;;;;;;14.70;11.40;;;;;;;;;;4990153;28;20267;-68
2022/11/14 01:05:03;;;;;;;15.93;10.33;;;;;;;;;;4989652;28;20214;-68
2022/11/14 01:07:28;;;;;;;15.40;11.33;;;;;;;;;;4985976;28;20619;-68
2022/11/14 01:09:53;;;;;;;18.00;12.93;;;;;;;;;;4990448;28;20276;-68
2022/11/14 01:12:19;;;;;;;15.07;11.27;;;;;;;;;;4994707;28;20549;-68
2022/11/14 01:14:44;;;;;;;15.13;11.13;;;;;;;;;;4990099;28;20389;-68
2022/11/14 01:17:09;;;;;;;16.77;10.67;;;;;;;;;;4989483;28;20195;-68
2022/11/14 01:19:34;;;;;;;14.80;11.13;;;;;;;;;;4990333;28;20195;-68
2022/11/14 01:21:59;;;;;;;14.33;10.83;;;;;;;;;;4989730;28;20187;-68
2022/11/14 01:24:25;;;;;;;15.13;11.37;;;;;;;;;;4990008;28;20226;-68
2022/11/14 01:26:50;;;;;;;15.20;10.67;;;;;;;;;;4990334;28;20217;-67
2022/11/14 01:29:15;;;;;;;15.47;11.63;;;;;;;;;;4990133;28;20211;-68
2022/11/14 01:31:40;;;;;;;14.13;10.67;;;;;;;;;;4988569;28;20613;-68
2022/11/14 01:34:05;;;;;;;16.10;11.67;;;;;;;;;;4991089;28;20207;-68
2022/11/14 01:36:31;;;;;;;16.03;11.33;;;;;;;;;;4990828;28;20238;-68
2022/11/14 01:38:56;;;;;;;16.70;11.20;;;;;;;;;;4990954;28;20540;-68
2022/11/14 01:41:21;;;;;;;14.87;12.00;;;;;;;;;;4988078;28;20290;-68
2022/11/14 01:43:47;;;;;;;14.77;10.43;;;;;;;;;;4989742;28;20200;-68
2022/11/14 01:46:12;;;;;;;16.77;12.70;;;;;;;;;;4989442;28;20275;-68
2022/11/14 01:48:40;;;;;;;16.77;11.07;;;;;;;;;;4990683;28;20180;-68
2022/11/14 01:51:17;;;;;;;17.53;12.20;;;;;;;;;;4982363;28;20283;-68
2022/11/14 01:53:43;;;;;;;20.60;12.83;;;;;;;;;;4987757;28;20199;-67
2022/11/14 01:56:10;;;;;;;20.63;11.90;;;;;;;;;;4994098;28;20246;-67
2022/11/14 01:58:36;;;;;;;20.63;13.23;;;;;;;;;;4993014;28;20190;-68
2022/11/14 02:01:01;;;;;;;16.57;12.27;;;;;;;;;;4993264;28;20242;-68
2022/11/14 02:03:27;;;;;;;19.67;13.03;;;;;;;;;;4992553;28;20196;-68
2022/11/14 02:05:52;;;;;;;19.80;13.07;;;;;;;;;;4990667;28;20254;-68
2022/11/14 02:08:17;;;;;;;19.70;12.97;;;;;;;;;;4993385;28;20188;-68
2022/11/14 02:10:43;;;;;;;20.10;13.07;;;;;;;;;;4991754;28;20191;-68
2022/11/14 02:13:08;;;;;;;20.17;13.77;;;;;;;;;;4989993;28;20623;-68
2022/11/14 02:15:33;;;;;;;18.60;12.13;;;;;;;;;;4993026;28;20171;-68
2022/11/14 02:18:00;;;;;;;19.17;12.30;;;;;;;;;;4993961;28;20583;-67
2022/11/14 02:20:31;;;;;;;18.00;13.43;;;;;;;;;;4993693;28;20187;-68
2022/11/14 02:22:56;;;;;;;20.50;12.67;;;;;;;;;;4993486;28;20285;-68
2022/11/14 02:25:22;;;;;;;20.47;13.50;;;;;;;;;;4992284;28;20243;-68
2022/11/14 02:27:48;;;;;;;20.10;13.03;;;;;;;;;;4993755;28;20187;-68
2022/11/14 02:30:15;;;;;;;21.47;14.17;;;;;;;;;;4993364;28;20196;-68
2022/11/14 02:32:41;;;;;;;19.50;13.63;;;;;;;;;;4991811;28;20290;-69
2022/11/14 02:35:06;;;;;;;23.57;14.00;;;;;;;;;;4992317;28;20713;-68
2022/11/14 02:37:31;;;;;;;23.60;14.27;;;;;;;;;;4993277;28;20247;-68
2022/11/14 02:39:56;;;;;;;24.17;14.90;;;;;;;;;;4993509;28;20634;-68
2022/11/14 02:42:21;;;;;;;24.10;14.77;;;;;;;;;;4992632;28;20191;-68
2022/11/14 02:44:47;;;;;;;19.73;13.93;;;;;;;;;;4993634;28;20227;-68
2022/11/14 02:47:12;;;;;;;24.67;14.03;;;;;;;;;;4992652;28;20175;-68
2022/11/14 02:49:37;;;;;;;29.23;16.23;;;;;;;;;;4992654;28;20196;-69
2022/11/14 02:52:02;;;;;;;22.93;15.07;;;;;;;;;;4980653;28;20616;-68
2022/11/14 02:54:27;;;;;;;26.03;16.20;;;;;;;;;;4992894;28;20211;-68
2022/11/14 02:56:53;;;;;;;24.57;14.40;;;;;;;;;;4993255;28;20558;-68
2022/11/14 02:59:18;;;;;;;26.77;15.60;;;;;;;;;;4993311;28;20211;-68
2022/11/14 03:01:43;;;;;;;25.03;15.30;;;;;;;;;;4991142;28;20213;-68
2022/11/14 03:04:08;;;;;;;29.93;16.30;;;;;;;;;;4990152;28;20585;-68
2022/11/14 03:06:34;;;;;;;25.87;15.67;;;;;;;;;;4992621;28;20187;-70
2022/11/14 03:08:59;;;;;;;26.87;15.83;;;;;;;;;;4993057;28;20506;-67
2022/11/14 03:11:24;;;;;;;27.67;16.40;;;;;;;;;;4991845;28;20203;-67
2022/11/14 03:13:49;;;;;;;29.03;17.30;;;;;;;;;;4992943;28;20269;-67
2022/11/14 03:16:14;;;;;;;27.63;16.77;;;;;;;;;;4991897;28;20250;-67
2022/11/14 03:18:40;;;;;;;33.30;19.83;;;;;;;;;;4992315;28;20211;-68
2022/11/14 03:21:09;;;;;;;27.10;17.47;;;;;;;;;;4992016;28;20275;-68
2022/11/14 03:23:35;;;;;;;29.03;17.50;;;;;;;;;;4991969;28;20223;-68
2022/11/14 03:26:01;;;;;;;33.63;18.77;;;;;;;;;;4989747;28;20250;-68
2022/11/14 03:28:26;;;;;;;32.53;17.57;;;;;;;;;;4992492;28;20191;-68
2022/11/14 03:30:52;;;;;;;32.10;17.07;;;;;;;;;;4990872;28;20203;-68
2022/11/14 03:33:17;;;;;;;29.90;18.33;;;;;;;;;;4992431;28;20687;-68
2022/11/14 03:35:42;;;;;;;32.63;17.43;;;;;;;;;;4990201;28;20175;-68
2022/11/14 03:38:07;;;;;;;34.10;19.27;;;;;;;;;;4991343;28;20184;-68
2022/11/14 03:40:33;;;;;;;32.53;17.97;;;;;;;;;;4991850;28;20649;-67
2022/11/14 03:42:58;;;;;;;32.30;18.10;;;;;;;;;;4993598;28;20176;-68
2022/11/14 03:45:23;;;;;;;37.77;19.20;;;;;;;;;;4993618;28;20324;-67
2022/11/14 03:47:48;;;;;;;31.83;18.43;;;;;;;;;;4992615;28;20180;-67
2022/11/14 03:50:13;;;;;;;33.93;18.03;;;;;;;;;;4992074;28;20682;-67
2022/11/14 03:52:38;;;;;;;35.60;18.87;;;;;;;;;;4983754;28;20215;-67
2022/11/14 03:55:04;;;;;;;36.17;18.63;;;;;;;;;;4991063;28;20207;-67
2022/11/14 03:57:29;;;;;;;35.63;18.73;;;;;;;;;;4991729;28;20204;-67
2022/11/14 03:59:54;;;;;;;34.53;19.20;;;;;;;;;;4974614;28;20267;-67
2022/11/14 04:02:19;;;;;;;32.47;19.37;;;;;;;;;;4990440;28;20179;-67
2022/11/14 04:04:45;;;;;;;32.40;19.23;;;;;;;;;;4990399;28;20199;-68
2022/11/14 04:07:10;;;;;;;36.43;19.07;;;;;;;;;;4990543;28;20657;-67
2022/11/14 04:09:35;;;;;;;38.27;19.90;;;;;;;;;;4973741;28;20208;-67
2022/11/14 04:12:00;;;;;;;35.63;19.77;;;;;;;;;;4995858;28;20183;-67
2022/11/14 04:14:25;;;;;;;33.33;19.63;;;;;;;;;;4990476;28;20658;-67
2022/11/14 04:16:50;;;;;;;33.50;19.73;;;;;;;;;;4989198;28;20224;-67
2022/11/14 04:19:16;;;;;;;33.47;18.63;;;;;;;;;;4991540;28;20180;-67
2022/11/14 04:21:41;;;;;;;32.87;17.87;;;;;;;;;;4992595;28;20188;-68
2022/11/14 04:24:06;;;;;;;35.27;18.57;;;;;;;;;;4993894;28;20219;-68
2022/11/14 04:26:31;;;;;;;36.20;19.23;;;;;;;;;;4991015;28;20263;-68
2022/11/14 04:28:56;;;;;;;36.47;19.33;;;;;;;;;;4993893;28;20180;-68
2022/11/14 04:31:22;;;;;;;33.47;18.07;;;;;;;;;;4990498;28;20203;-68
2022/11/14 04:33:47;;;;;;;37.53;19.53;;;;;;;;;;4990670;28;20238;-68
2022/11/14 04:36:12;;;;;;;35.73;18.40;;;;;;;;;;4990031;28;20187;-68
2022/11/14 04:38:38;;;;;;;33.40;18.27;;;;;;;;;;4994255;28;20226;-68
2022/11/14 04:41:03;;;;;;;34.00;18.87;;;;;;;;;;4990980;28;20219;-68
2022/11/14 04:43:28;;;;;;;33.07;19.30;;;;;;;;;;4995669;28;20209;-69
2022/11/14 04:45:54;;;;;;;33.63;17.50;;;;;;;;;;4990790;28;20222;-68
2022/11/14 04:48:19;;;;;;;35.37;18.57;;;;;;;;;;4989877;28;20255;-68
2022/11/14 04:50:45;;;;;;;33.30;19.53;;;;;;;;;;4989583;28;20654;-67
2022/11/14 04:53:10;;;;;;;36.20;18.60;;;;;;;;;;4986515;28;20176;-68
2022/11/14 04:55:35;;;;;;;34.40;18.80;;;;;;;;;;4991348;28;20625;-67
2022/11/14 04:58:01;;;;;;;35.83;19.50;;;;;;;;;;4991893;28;20313;-67
2022/11/14 05:00:26;;;;;;;36.37;20.37;;;;;;;;;;4990293;28;20175;-68
2022/11/14 05:02:51;;;;;;;31.83;18.23;;;;;;;;;;4992014;28;20246;-68
2022/11/14 05:05:17;;;;;;;33.87;19.87;;;;;;;;;;4987792;28;20242;-68
2022/11/14 05:07:42;;;;;;;35.87;19.37;;;;;;;;;;4990434;28;20222;-68
2022/11/14 05:10:07;;;;;;;32.77;19.10;;;;;;;;;;4993886;28;20314;-68
2022/11/14 05:12:33;;;;;;;39.40;21.00;;;;;;;;;;4975358;28;20210;-68
2022/11/14 05:14:58;;;;;;;37.73;18.67;;;;;;;;;;4990623;28;20263;-68
2022/11/14 05:17:23;;;;;;;35.43;20.17;;;;;;;;;;4993427;28;20171;-68
2022/11/14 05:19:48;;;;;;;35.03;19.77;;;;;;;;;;4980194;28;20175;-68
2022/11/14 05:22:13;;;;;;;36.53;19.57;;;;;;;;;;4989600;28;20199;-69
2022/11/14 05:24:39;;;;;;;31.83;17.93;;;;;;;;;;4991868;28;20218;-68
2022/11/14 05:27:04;;;;;;;36.23;19.33;;;;;;;;;;4996117;28;20742;-68
2022/11/14 05:29:29;;;;;;;35.57;19.60;;;;;;;;;;4996050;28;20198;-68
2022/11/14 05:31:55;;;;;;;38.27;19.87;;;;;;;;;;4996364;28;20680;-67
2022/11/14 05:34:20;;;;;;;36.00;19.83;;;;;;;;;;4996192;28;20265;-68
2022/11/14 05:36:45;;;;;;;32.37;19.20;;;;;;;;;;4996480;28;20281;-68
2022/11/14 05:39:10;;;;;;;38.53;18.73;;;;;;;;;;4994418;28;20557;-67
2022/11/14 05:41:35;;;;;;;34.40;19.17;;;;;;;;;;4998795;28;20191;-69
2022/11/14 05:44:03;;;;;;;38.97;19.30;;;;;;;;;;4994584;28;20203;-69
2022/11/14 05:46:28;;;;;;;34.83;18.97;;;;;;;;;;4992684;28;20214;-69
2022/11/14 05:48:53;;;;;;;36.93;18.93;;;;;;;;;;5000296;28;20187;-67
2022/11/14 05:51:18;;;;;;;36.57;19.03;;;;;;;;;;4997699;28;20329;-67
2022/11/14 05:53:43;;;;;;;38.33;20.07;;;;;;;;;;4990639;28;20228;-67
2022/11/14 05:56:10;;;;;;;38.40;20.83;;;;;;;;;;4991376;28;20168;-67
2022/11/14 05:58:35;;;;;;;35.63;19.73;;;;;;;;;;4991226;28;20196;-67
2022/11/14 06:01:02;;;;;;;39.37;19.90;;;;;;;;;;5000148;28;20191;-67
2022/11/14 06:03:29;;;;;;;32.73;18.13;;;;;;;;;;4996937;28;20246;-69
2022/11/14 06:05:54;;;;;;;39.67;19.57;;;;;;;;;;4992913;28;20199;-68
2022/11/14 06:08:19;;;;;;;35.10;19.23;;;;;;;;;;4975598;28;20183;-68
2022/11/14 06:10:45;;;;;;;35.40;17.37;;;;;;;;;;4992559;28;20360;-68
2022/11/14 06:13:10;;;;;;;39.77;20.33;;;;;;;;;;4993651;28;20281;-68
2022/11/14 06:15:35;;;;;;;36.07;19.23;;;;;;;;;;4993277;28;20190;-68
2022/11/14 06:18:00;;;;;;;35.33;19.03;;;;;;;;;;4992047;28;20568;-68
2022/11/14 06:20:25;;;;;;;32.00;17.83;;;;;;;;;;4993624;28;20296;-68
2022/11/14 06:22:52;;;;;;;30.77;19.00;;;;;;;;;;4991737;28;20262;-68
2022/11/14 06:25:18;;;;;;;35.00;18.27;;;;;;;;;;4991899;28;20207;-69
2022/11/14 06:27:43;;;;;;;36.50;18.20;;;;;;;;;;4993319;28;20175;-69
2022/11/14 06:30:08;;;;;;;37.60;19.47;;;;;;;;;;4992751;28;20560;-68
2022/11/14 06:32:33;;;;;;;38.00;18.97;;;;;;;;;;4992687;28;20207;-69
2022/11/14 06:34:59;;;;;;;33.60;18.47;;;;;;;;;;4993585;28;20653;-69
2022/11/14 06:37:24;;;;;;;29.53;16.63;;;;;;;;;;4991295;28;20299;-68
2022/11/14 06:39:49;;;;;;;35.87;18.17;;;;;;;;;;4992548;28;20210;-68
2022/11/14 06:42:14;;;;;;;35.43;18.83;;;;;;;;;;4990840;28;20203;-69
2022/11/14 06:44:40;;;;;;;41.47;21.03;;;;;;;;;;4992955;28;20204;-69
2022/11/14 06:47:05;;;;;;;32.57;18.93;;;;;;;;;;4992748;28;20204;-68
2022/11/14 06:49:30;;;;;;;37.83;19.43;;;;;;;;;;4987806;28;20187;-70
2022/11/14 06:51:55;;;;;;;34.97;18.10;;;;;;;;;;4990921;28;20275;-68
2022/11/14 06:54:20;;;;;;;32.23;17.83;;;;;;;;;;4992663;28;20238;-68
2022/11/14 06:56:46;;;;;;;30.93;16.67;;;;;;;;;;4993037;28;20310;-68
2022/11/14 06:59:11;;;;;;;38.73;18.87;;;;;;;;;;4992809;28;20172;-69
2022/11/14 07:01:36;;;;;;;37.63;19.33;;;;;;;;;;4983333;28;20803;-68
2022/11/14 07:04:01;;;;;;;31.90;18.17;;;;;;;;;;4990818;28;20223;-68
2022/11/14 07:06:27;;;;;;;33.33;18.77;;;;;;;;;;4984680;28;20184;-68
2022/11/14 07:08:53;;;;;;;37.03;18.70;;;;;;;;;;4990723;28;20258;-68
2022/11/14 07:11:22;;;;;;;35.53;18.47;;;;;;;;;;4985740;28;20640;-68
2022/11/14 07:13:58;;;;;;;34.83;18.00;;;;;;;;;;4990414;28;20199;-68
2022/11/14 07:16:30;;;;;;;34.07;18.83;;;;;;;;;;4993076;28;20211;-68
2022/11/14 07:18:56;;;;;;;37.90;19.17;;;;;;;;;;4992329;28;20234;-68
2022/11/14 07:21:21;;;;;;;34.03;17.67;;;;;;;;;;4989957;28;20606;-68
2022/11/14 07:23:47;;;;;;;37.40;18.53;;;;;;;;;;4991432;28;20231;-68
2022/11/14 07:26:12;;;;;;;36.17;19.00;;;;;;;;;;4991973;28;20187;-69
2022/11/14 07:28:41;;;;;;;33.47;18.47;;;;;;;;;;4992484;28;20172;-69
2022/11/14 07:31:08;;;;;;;34.20;18.80;;;;;;;;;;4991482;28;20242;-68
2022/11/14 07:33:33;;;;;;;31.30;17.20;;;;;;;;;;4989050;28;20207;-68
2022/11/14 07:35:59;;;;;;;40.03;19.53;;;;;;;;;;4992306;28;20264;-68
2022/11/14 07:38:24;;;;;;;37.73;19.67;;;;;;;;;;4991129;28;20182;-69
2022/11/14 07:40:56;;;;;;;35.97;17.87;;;;;;;;;;4991312;28;20172;-68
2022/11/14 07:43:21;;;;;;;36.30;18.20;;;;;;;;;;4992199;28;20180;-68
2022/11/14 07:45:46;;;;;;;43.63;20.37;;;;;;;;;;4992410;28;20184;-68
2022/11/14 07:48:11;;;;;;;37.50;19.83;;;;;;;;;;4989873;28;20221;-69
2022/11/14 07:50:37;;;;;;;34.47;18.50;;;;;;;;;;4990362;28;20537;-68
2022/11/14 07:53:02;;;;;;;35.93;18.20;;;;;;;;;;4991457;28;20642;-69
2022/11/14 07:55:27;;;;;;;33.80;18.53;;;;;;;;;;4991710;28;20195;-68
2022/11/14 07:57:53;;;;;;;36.63;18.37;;;;;;;;;;4990455;28;20230;-68
2022/11/14 08:00:18;;;;;;;31.40;18.00;;;;;;;;;;4991420;28;20180;-68
2022/11/14 08:02:44;;;;;;;36.67;19.43;;;;;;;;;;4986148;28;20179;-68
2022/11/14 08:05:10;;;;;;;37.43;18.80;;;;;;;;;;4988514;28;20215;-68
2022/11/14 08:07:35;;;;;;;35.60;18.90;;;;;;;;;;4990278;28;20202;-68
2022/11/14 08:10:00;;;;;;;33.77;19.03;;;;;;;;;;4989313;28;20209;-68
2022/11/14 08:12:25;;;;;;;32.03;17.47;;;;;;;;;;4990640;28;20223;-68
2022/11/14 08:14:50;;;;;;;32.33;19.50;;;;;;;;;;4995143;28;20207;-72
2022/11/14 08:17:15;;;;;;;31.33;18.90;;;;;;;;;;4997539;28;20209;-68
2022/11/14 08:19:41;;;;;;;32.77;17.93;;;;;;;;;;4990377;28;20270;-68
2022/11/14 08:22:06;;;;;;;30.47;17.70;;;;;;;;;;4993589;28;20187;-68
2022/11/14 08:24:31;;;;;;;27.53;17.30;;;;;;;;;;4989911;28;20211;-68
2022/11/14 08:26:57;;;;;;;28.87;17.43;;;;;;;;;;4992959;28;20416;-68
2022/11/14 08:29:22;;;;;;;25.73;15.00;;;;;;;;;;5007685;28;20180;-69
2022/11/14 08:31:47;;;;;;;27.97;15.40;;;;;;;;;;4989836;28;20318;-68
2022/11/14 08:34:12;;;;;;;23.20;15.57;;;;;;;;;;4991911;28;20704;-69
2022/11/14 08:36:37;;;;;;;26.47;15.20;;;;;;;;;;4992579;28;20172;-69
2022/11/14 08:39:03;;;;;;;23.90;15.07;;;;;;;;;;4991428;28;20179;-69
2022/11/14 08:41:28;;;;;;;22.17;14.10;;;;;;;;;;4990431;28;20680;-69
2022/11/14 08:43:53;;;;;;;21.03;13.83;;;;;;;;;;4991244;28;20285;-69
2022/11/14 08:46:19;;;;;;;21.07;13.87;;;;;;;;;;4990924;28;20171;-69
2022/11/14 08:48:44;;;;;;;22.20;13.80;;;;;;;;;;4990097;28;20210;-68
2022/11/14 08:51:09;;;;;;;19.50;13.73;;;;;;;;;;4990190;28;20759;-69
2022/11/14 08:53:34;;;;;;;21.27;14.27;;;;;;;;;;4991056;28;20220;-69
2022/11/14 08:56:00;;;;;;;21.80;12.53;;;;;;;;;;4989678;28;20207;-68
2022/11/14 08:58:29;;;;;;;19.63;13.03;;;;;;;;;;4991041;28;20570;-69
2022/11/14 09:00:58;;;;;;;22.43;12.80;;;;;;;;;;4989564;28;20175;-69
2022/11/14 09:03:23;;;;;;;22.00;13.93;;;;;;;;;;4984169;28;20657;-69
2022/11/14 09:05:51;;;;;;;19.57;13.73;;;;;;;;;;4984477;28;20198;-67
2022/11/14 09:08:17;;;;;;;20.83;12.70;;;;;;;;;;4991143;28;20553;-69
2022/11/14 09:10:42;;;;;;;16.23;11.50;;;;;;;;;;4988570;28;20206;-67
2022/11/14 09:13:08;;;;;;;19.67;12.33;;;;;;;;;;4989712;28;20290;-68
2022/11/14 09:15:33;;;;;;;20.60;12.53;;;;;;;;;;4989564;28;20463;-67
2022/11/14 09:17:58;;;;;;;18.43;11.53;;;;;;;;;;4980543;28;20194;-67
2022/11/14 09:20:24;;;;;;;17.70;11.90;;;;;;;;;;4991138;28;20920;-67
2022/11/14 09:22:52;;;;;;;18.67;11.80;;;;;;;;;;4993913;28;20189;-68
2022/11/14 09:25:18;;;;;;;15.60;10.93;;;;;;;;;;5022957;22;20227;-73
2022/11/14 09:27:43;;;;;;;16.50;11.00;;;;;;;;;;5017091;28;20183;-73
2022/11/14 09:30:09;;;;;;;16.37;11.23;;;;;;;;;;5010853;28;20206;-73
2022/11/14 09:32:34;;;;;;;14.93;10.73;;;;;;;;;;5015630;28;20324;-73
2022/11/14 09:34:59;;;;;;;15.80;11.15;;;;;;;;;;5009778;28;20668;-73
2022/11/14 09:37:24;;;;;;;15.02;10.20;;;;;;;;;;5009425;28;20179;-73
2022/11/14 09:39:50;;;;;;;15.40;10.07;;;;;;;;;;5009092;28;20183;-72
2022/11/14 09:42:38;;;;;;;13.50;10.20;;;;;;;;;;5010032;28;20179;-73
2022/11/14 09:45:06;;;;;;;14.93;11.40;;;;;;;;;;5003310;28;20226;-73
2022/11/14 09:47:31;;;;;;;14.88;10.13;;;;;;;;;;5010543;28;20262;-73
2022/11/14 09:50:25;;;;;;;11.93;9.70;;;;;;;;;;5009056;28;20285;-73
2022/11/14 09:52:55;;;;;;;15.50;10.20;;;;;;;;;;4991874;28;20207;-73
2022/11/14 09:55:22;;;;;;;14.05;10.07;;;;;;;;;;5010584;28;20286;-73
2022/11/14 09:57:47;;;;;;;12.32;9.00;;;;;;;;;;5009077;28;20649;-73
2022/11/14 10:00:15;;;;;;;13.18;9.57;;;;;;;;;;5009865;28;20278;-73
2022/11/14 10:02:53;;;;;;;12.55;9.07;;;;;;;;;;5008336;28;20183;-73
2022/11/14 10:05:30;;;;;;;11.07;9.35;;;;;;;;;;5008996;28;20299;-73
2022/11/14 10:08:07;;;;;;;11.27;9.25;;;;;;;;;;5010556;28;20269;-73
2022/11/14 10:10:51;;;;;;;11.25;8.80;;;;;;;;;;5008650;28;20202;-73
2022/11/14 10:13:35;;;;;;;12.88;8.85;;;;;;;;;;5011870;28;20183;-73
2022/11/14 10:16:03;;;;;;;12.55;9.55;;;;;;;;;;5008355;28;20201;-73
2022/11/14 10:18:40;;;;;;;11.85;8.48;;;;;;;;;;5013231;28;20210;-73
2022/11/14 10:21:28;;;;;;;12.70;9.18;;;;;;;;;;5012137;28;20179;-73
2022/11/14 10:23:56;;;;;;;12.13;9.02;;;;;;;;;;5013674;28;20253;-73
2022/11/14 10:26:29;;;;;;;13.60;9.07;;;;;;;;;;5012363;28;20178;-73
2022/11/14 10:29:13;;;;;;;13.57;9.57;;;;;;;;;;5007532;28;20179;-73
2022/11/14 10:31:44;;;;;;;11.95;9.02;;;;;;;;;;5011446;28;20207;-73
2022/11/14 10:34:09;;;;;;;11.02;8.98;;;;;;;;;;5012277;28;20352;-73
2022/11/14 10:36:53;;;;;;;14.47;9.43;;;;;;;;;;5013941;28;20262;-73
2022/11/14 10:39:37;;;;;;;12.40;9.57;;;;;;;;;;5009533;28;20700;-73
2022/11/14 10:42:06;;;;;;;11.60;9.37;;;;;;;;;;5002464;28;20678;-73
2022/11/14 10:44:35;;;;;;;11.30;8.60;;;;;;;;;;5009261;28;20205;-73
2022/11/14 10:47:02;;;;;;;12.07;8.43;;;;;;;;;;5009622;28;20652;-73
2022/11/14 10:49:29;;;;;;;12.20;8.93;;;;;;;;;;5005068;28;20233;-73
2022/11/14 10:51:57;;;;;;;15.40;9.32;;;;;;;;;;5005940;28;20206;-73
2022/11/14 10:54:25;;;;;;;11.75;9.18;;;;;;;;;;5008433;28;20205;-73
2022/11/14 10:56:52;;;;;;;13.50;8.73;;;;;;;;;;5003302;28;20636;-73
2022/11/14 10:59:17;;;;;;;14.60;8.35;;;;;;;;;;5013308;28;20189;-73
2022/11/14 11:01:43;;;;;;;12.02;9.13;;;;;;;;;;5011977;28;20183;-73
2022/11/14 11:04:27;;;;;;;10.20;7.85;;;;;;;;;;5009850;28;20293;-73
2022/11/14 11:06:54;;;;;;;10.63;8.32;;;;;;;;;;5008394;28;20254;-73
2022/11/14 11:12:05;;;;;;;11.60;9.13;;;;;;;;;;5002173;28;20241;-73
2022/11/14 11:14:30;;;;;;;9.75;8.00;;;;;;;;;;5007066;28;20616;-73
2022/11/14 11:17:11;;;;;;;13.30;8.60;;;;;;;;;;5006230;28;20229;-74
2022/11/14 11:19:37;;;;;;;9.85;8.63;;;;;;;;;;5011699;28;20629;-73
2022/11/14 11:22:02;;;;;;;11.02;8.90;;;;;;;;;;5012207;28;20194;-73
2022/11/14 11:24:35;;;;;;;11.60;8.73;;;;;;;;;;5009967;28;20207;-73
2022/11/14 11:27:21;;;;;;;14.48;8.85;;;;;;;;;;5007223;28;20175;-73
2022/11/14 11:30:00;;;;;;;10.73;9.00;;;;;;;;;;5007461;28;20230;-73
2022/11/14 11:32:25;;;;;;;14.38;8.88;;;;;;;;;;5012436;28;20617;-73
2022/11/14 11:34:50;;;;;;;15.27;9.77;;;;;;;;;;5011821;28;20206;-73
2022/11/14 11:37:23;;;;;;;11.13;9.45;;;;;;;;;;5011754;28;20182;-73
2022/11/14 11:39:51;;;;;;;10.40;8.50;;;;;;;;;;5012720;28;20179;-73
2022/11/14 11:42:20;;;;;;;10.88;9.18;;;;;;;;;;5011775;28;20183;-73
2022/11/14 11:44:47;;;;;;;10.32;8.45;;;;;;;;;;4997315;28;20252;-73
2022/11/14 11:47:16;;;;;;;11.90;9.10;;;;;;;;;;5011510;28;20561;-73
2022/11/14 11:49:41;;;;;;;13.77;9.90;;;;;;;;;;5012993;28;20276;-73
2022/11/14 11:52:11;;;;;;;12.37;9.77;;;;;;;;;;5010815;28;20650;-73
2022/11/14 11:54:58;;;;;;;10.55;8.80;;;;;;;;;;5010454;28;20433;-73
2022/11/14 11:57:28;;;;;;;13.52;10.07;;;;;;;;;;5010229;28;20183;-73
2022/11/14 11:59:57;;;;;;;10.70;9.60;;;;;;;;;;5012389;28;20574;-73
2022/11/14 12:02:24;;;;;;;11.38;8.48;;;;;;;;;;5011589;28;20656;-73
2022/11/14 12:04:50;;;;;;;11.55;10.35;;;;;;;;;;5009921;28;20229;-73
2022/11/14 12:07:17;;;;;;;9.43;8.43;;;;;;;;;;5011523;28;20175;-73
2022/11/14 12:09:43;;;;;;;11.85;9.73;;;;;;;;;;5010936;28;20270;-73
2022/11/14 12:12:34;;;;;;;11.32;9.18;;;;;;;;;;5011419;28;20279;-73
2022/11/14 12:15:10;;;;;;;13.43;9.52;;;;;;;;;;5000105;28;20211;-73
2022/11/14 12:17:50;;;;;;;13.10;9.93;;;;;;;;;;5010427;28;20183;-73
2022/11/14 12:20:18;;;;;;;11.82;9.27;;;;;;;;;;5011603;28;20187;-73
2022/11/14 12:23:06;;;;;;;12.00;9.70;;;;;;;;;;5007204;28;20185;-73
2022/11/14 12:25:44;;;;;;;12.57;10.25;;;;;;;;;;5011380;28;20219;-73
2022/11/14 12:28:12;;;;;;;11.85;9.82;;;;;;;;;;5006607;28;20273;-73
2022/11/14 12:30:40;;;;;;;11.77;9.95;;;;;;;;;;5011422;28;20203;-71
2022/11/14 12:33:11;;;;;;;12.02;9.75;;;;;;;;;;5006667;28;20201;-71
2022/11/14 12:35:38;;;;;;;12.27;9.18;;;;;;;;;;5009587;28;20195;-74
2022/11/14 12:38:04;;;;;;;12.65;9.40;;;;;;;;;;5010048;28;20183;-71
2022/11/14 12:40:48;;;;;;;13.68;10.05;;;;;;;;;;5010292;28;20191;-74
2022/11/14 12:43:26;;;;;;;14.60;10.07;;;;;;;;;;5003134;28;20199;-73
2022/11/14 12:45:51;;;;;;;12.82;11.30;;;;;;;;;;5009112;28;20221;-73
2022/11/14 12:48:19;;;;;;;13.13;10.52;;;;;;;;;;5011331;28;20649;-73
2022/11/14 12:50:44;;;;;;;12.90;9.50;;;;;;;;;;5005877;28;20711;-71
2022/11/14 12:53:34;;;;;;;14.52;10.60;;;;;;;;;;5011114;28;20175;-73
2022/11/14 12:56:12;;;;;;;12.88;10.15;;;;;;;;;;5010759;28;20197;-73
2022/11/14 12:58:37;;;;;;;15.20;12.10;;;;;;;;;;5009999;28;20190;-71
2022/11/14 13:01:21;;;;;;;12.98;10.90;;;;;;;;;;5010631;28;20187;-73
2022/11/14 13:04:00;;;;;;;14.90;11.70;;;;;;;;;;4995543;28;20206;-71
2022/11/14 13:06:31;;;;;;;16.80;13.15;;;;;;;;;;5009093;28;20187;-73
2022/11/14 13:09:17;;;;;;;15.45;12.93;;;;;;;;;;5010108;28;20617;-73
2022/11/14 13:22:45;;;;;;;27.13;19.75;;;;;;;;;;5010212;28;20180;-73
2022/11/14 13:25:10;;;;;;;30.42;21.08;;;;;;;;;;5010815;28;20309;-73
2022/11/14 13:27:35;;;;;;;31.30;21.90;;;;;;;;;;5010974;28;20265;-73
2022/11/14 13:30:04;;;;;;;34.42;24.83;;;;;;;;;;5010138;28;20455;-73
2022/11/14 13:32:41;;;;;;;33.00;24.97;;;;;;;;;;5009227;28;20167;-73
2022/11/14 13:35:18;;;;;;;33.88;24.58;;;;;;;;;;5006277;28;20198;-73
2022/11/14 13:37:55;;;;;;;36.10;24.47;;;;;;;;;;5010407;28;20646;-73
2022/11/14 13:40:39;;;;;;;38.20;25.80;;;;;;;;;;5010545;28;20535;-73
2022/11/14 13:43:14;;;;;;;40.47;27.10;;;;;;;;;;5009493;28;20270;-73
2022/11/14 13:45:39;;;;;;;36.93;26.40;;;;;;;;;;5009625;28;20194;-73
2022/11/14 13:48:23;;;;;;;41.40;28.17;;;;;;;;;;5013712;28;20225;-73
2022/11/14 13:50:50;;;;;;;35.70;26.03;;;;;;;;;;5002931;28;20285;-73
2022/11/14 13:53:18;;;;;;;35.07;25.87;;;;;;;;;;5010268;28;20178;-73
2022/11/14 13:55:43;;;;;;;37.47;26.90;;;;;;;;;;5005755;28;20294;-72
2022/11/14 13:58:09;;;;;;;34.67;24.77;;;;;;;;;;5011924;28;20342;-73
2022/11/14 14:01:12;;;;;;;35.97;25.53;;;;;;;;;;5012129;28;20661;-73
2022/11/14 14:03:38;;;;;;;38.67;27.83;;;;;;;;;;4910505;29;20221;-73
2022/11/14 14:06:05;;;;;;;40.53;26.53;;;;;;;;;;4935511;29;20237;-73
2022/11/14 14:08:33;;;;;;;38.97;25.57;;;;;;;;;;4965685;28;20203;-73
2022/11/14 14:11:10;;;;;;;37.23;27.10;;;;;;;;;;5011670;28;20203;-73
2022/11/14 14:13:57;;;;;;;39.20;27.57;;;;;;;;;;5011888;28;20184;-73
2022/11/14 14:16:28;;;;;;;38.30;28.00;;;;;;;;;;5012734;28;20191;-73
2022/11/14 14:19:05;;;;;;;40.03;28.07;;;;;;;;;;5011155;28;20233;-72
2022/11/14 14:21:33;;;;;;;37.83;28.10;;;;;;;;;;5011592;28;20179;-72
2022/11/14 14:24:13;;;;;;;35.87;27.13;;;;;;;;;;5014013;28;20539;-73
2022/11/14 14:26:54;;;;;;;34.77;24.80;;;;;;;;;;5013386;28;20618;-72
2022/11/14 14:29:22;;;;;;;38.75;26.45;;;;;;;;;;5011471;28;20190;-73
2022/11/14 14:31:47;;;;;;;38.87;26.13;;;;;;;;;;5004422;28;20211;-73
2022/11/14 14:34:29;;;;;;;42.90;26.80;;;;;;;;;;5014036;28;20195;-72
2022/11/14 14:36:55;;;;;;;37.83;25.90;;;;;;;;;;5007591;28;20183;-73